createdAt,value
2022-11-17T00:03:37.293Z,9.10
2022-11-17T00:07:39.446Z,9.09
2022-11-17T00:11:59.811Z,9.11
2022-11-17T00:16:01.557Z,9.11
2022-11-17T00:20:22.810Z,9.13
2022-11-17T00:24:24.523Z,9.16
2022-11-17T00:28:26.269Z,9.16
2022-11-17T00:32:46.535Z,9.16
2022-11-17T00:36:53.632Z,9.16
2022-11-17T00:40:55.267Z,9.18
2022-11-17T00:44:57.025Z,9.19
2022-11-17T00:48:58.852Z,9.20
2022-11-17T00:53:00.522Z,9.20
2022-11-17T00:57:02.563Z,9.21
2022-11-17T01:01:05.002Z,9.24
2022-11-17T01:05:07.113Z,9.25
2022-11-17T01:09:15.031Z,9.29
2022-11-17T01:13:17.864Z,9.31
2022-11-17T01:17:19.586Z,9.34
2022-11-17T01:21:24.253Z,9.36
2022-11-17T01:25:25.943Z,9.38
2022-11-17T01:29:27.680Z,9.38
2022-11-17T01:33:29.898Z,9.37
2022-11-17T01:37:31.601Z,9.37
2022-11-17T01:41:33.367Z,9.38
2022-11-17T01:45:37.253Z,9.40
2022-11-17T01:49:39.488Z,9.41
2022-11-17T01:53:42.899Z,9.43
2022-11-17T01:57:59.992Z,9.45
2022-11-17T02:02:01.759Z,9.45
2022-11-17T02:06:20.644Z,9.47
2022-11-17T02:10:22.443Z,9.49
2022-11-17T02:14:24.258Z,9.51
2022-11-17T02:18:26.421Z,9.52
2022-11-17T02:23:05.674Z,9.56
2022-11-17T02:27:49.252Z,9.58
2022-11-17T02:32:07.300Z,9.60
2022-11-17T02:36:12.263Z,9.62
2022-11-17T02:40:23.624Z,9.61
2022-11-17T02:44:40.373Z,9.62
2022-11-17T02:48:48.725Z,9.62
2022-11-17T02:52:50.332Z,9.63
2022-11-17T02:56:52.026Z,9.62
2022-11-17T03:01:01.257Z,9.64
2022-11-17T03:05:14.726Z,9.64
2022-11-17T03:09:27.300Z,9.64
2022-11-17T03:13:43.846Z,9.66
2022-11-17T03:17:58.418Z,9.70
2022-11-17T03:22:13.515Z,9.75
2022-11-17T03:26:23.708Z,9.77
2022-11-17T03:30:30.860Z,9.81
2022-11-17T03:34:44.153Z,9.83
2022-11-17T03:38:58.347Z,9.86
2022-11-17T03:43:05.110Z,9.87
2022-11-17T03:47:09.788Z,9.90
2022-11-17T03:51:24.915Z,9.92
2022-11-17T03:55:33.589Z,9.98
2022-11-17T03:59:57.022Z,10.00
2022-11-17T04:03:58.929Z,10.04
2022-11-17T04:08:00.636Z,10.07
2022-11-17T04:12:21.071Z,10.08
2022-11-17T04:16:22.761Z,10.09
2022-11-17T04:20:24.704Z,10.11
2022-11-17T04:24:26.361Z,10.13
2022-11-17T04:28:38.098Z,10.09
2022-11-17T04:32:39.737Z,10.06
2022-11-17T04:36:45.524Z,10.04
2022-11-17T04:41:05.662Z,10.01
2022-11-17T04:45:07.916Z,9.98
2022-11-17T04:49:09.591Z,9.94
2022-11-17T04:53:11.214Z,9.92
2022-11-17T04:57:12.881Z,9.90
2022-11-17T05:01:16.581Z,9.86
2022-11-17T05:05:18.256Z,9.84
2022-11-17T05:09:19.908Z,9.83
2022-11-17T05:13:21.753Z,9.81
2022-11-17T05:17:23.407Z,9.81
2022-11-17T05:21:25.430Z,9.82
2022-11-17T05:25:27.088Z,9.82
2022-11-17T05:29:28.776Z,9.82
2022-11-17T05:33:34.999Z,9.80
2022-11-17T05:37:39.352Z,9.79
2022-11-17T05:41:41.524Z,9.79
2022-11-17T05:45:45.605Z,9.78
2022-11-17T05:49:47.280Z,9.78
2022-11-17T05:53:49.697Z,9.78
2022-11-17T05:57:52.622Z,9.78
2022-11-17T06:01:59.919Z,9.78
2022-11-17T06:06:01.556Z,9.79
2022-11-17T06:10:03.521Z,9.80
2022-11-17T06:14:05.193Z,9.81
2022-11-17T06:18:14.695Z,9.81
2022-11-17T06:22:16.552Z,9.83
2022-11-17T06:26:18.458Z,9.84
2022-11-17T06:30:21.304Z,9.85
2022-11-17T06:34:22.987Z,9.86
2022-11-17T06:38:24.652Z,9.85
2022-11-17T06:42:45.243Z,9.86
2022-11-17T06:46:49.145Z,9.86
2022-11-17T06:50:51.116Z,9.86
2022-11-17T06:54:52.799Z,9.86
2022-11-17T06:58:55.391Z,9.85
2022-11-17T07:03:01.715Z,9.84
2022-11-17T07:07:03.686Z,9.85
2022-11-17T07:11:08.091Z,9.84
2022-11-17T07:15:10.328Z,9.83
2022-11-17T07:19:13.256Z,9.85
2022-11-17T07:23:15.080Z,9.84
2022-11-17T07:27:16.851Z,9.83
2022-11-17T07:31:18.625Z,9.79
2022-11-17T07:35:20.542Z,9.77
2022-11-17T07:39:22.306Z,9.74
2022-11-17T07:43:24.024Z,9.72
2022-11-17T07:47:25.761Z,9.69
2022-11-17T07:51:27.553Z,9.69
2022-11-17T07:55:29.272Z,9.69
2022-11-17T07:59:30.943Z,9.68
2022-11-17T08:03:32.770Z,9.67
2022-11-17T08:07:34.606Z,9.68
2022-11-17T08:11:37.007Z,9.69
2022-11-17T08:15:38.667Z,9.67
2022-11-17T08:19:40.439Z,9.68
2022-11-17T08:23:42.507Z,9.68
2022-11-17T08:27:44.365Z,9.68
2022-11-17T08:31:46.476Z,9.68
2022-11-17T08:35:48.254Z,9.68
2022-11-17T08:39:49.954Z,9.67
2022-11-17T08:43:51.875Z,9.68
2022-11-17T08:47:53.630Z,9.68
2022-11-17T08:51:55.389Z,9.68
2022-11-17T08:55:57.131Z,9.65
2022-11-17T08:59:59.260Z,9.67
2022-11-17T09:04:01.001Z,9.68
2022-11-17T09:08:29.722Z,9.69
2022-11-17T09:12:24.452Z,9.71
2022-11-17T09:16:26.179Z,9.72
2022-11-17T09:20:28.015Z,9.77
2022-11-17T09:24:29.736Z,9.82
2022-11-17T09:28:31.915Z,9.84
2022-11-17T09:32:36.873Z,9.83
2022-11-17T09:36:38.614Z,9.79
2022-11-17T09:40:41.692Z,9.77
2022-11-17T09:44:55.125Z,9.75
2022-11-17T09:49:13.567Z,9.73
2022-11-17T09:53:29.235Z,9.68
2022-11-17T09:57:45.034Z,9.67
2022-11-17T10:01:46.866Z,9.69
2022-11-17T10:05:49.434Z,9.69
2022-11-17T10:09:52.543Z,9.67
2022-11-17T10:13:54.381Z,9.67
2022-11-17T10:17:56.119Z,9.69
2022-11-17T10:22:07.183Z,9.72
2022-11-17T10:26:11.897Z,9.71
2022-11-17T10:30:19.728Z,9.73
2022-11-17T10:34:41.318Z,9.74
2022-11-17T10:38:49.024Z,9.73
2022-11-17T10:43:16.998Z,9.74
2022-11-17T10:47:29.956Z,9.74
2022-11-17T10:51:33.571Z,9.71
2022-11-17T10:55:35.967Z,9.73
2022-11-17T10:59:57.609Z,9.73
2022-11-17T11:03:59.742Z,9.73
2022-11-17T11:08:23.688Z,9.71
2022-11-17T11:12:35.415Z,9.69
2022-11-17T11:16:37.107Z,9.72
2022-11-17T11:20:59.948Z,9.70
2022-11-17T11:25:14.660Z,9.67
2022-11-17T11:29:22.337Z,9.69
2022-11-17T11:33:41.546Z,9.71
2022-11-17T11:37:49.693Z,9.74
2022-11-17T11:42:18.924Z,9.79
2022-11-17T11:47:00.022Z,9.83
2022-11-17T11:51:36.967Z,9.84
2022-11-17T11:55:41.438Z,9.84
2022-11-17T11:59:51.841Z,9.82
2022-11-17T12:04:20.575Z,9.82
2022-11-17T12:08:38.146Z,9.80
2022-11-17T12:12:41.068Z,9.77
2022-11-17T12:16:44.654Z,9.73
2022-11-17T12:20:46.325Z,9.72
2022-11-17T12:24:48.122Z,9.68
2022-11-17T12:28:49.950Z,9.65
2022-11-17T12:32:53.541Z,9.65
2022-11-17T12:37:16.916Z,9.64
2022-11-17T12:41:49.731Z,9.62
2022-11-17T12:46:25.362Z,9.61
2022-11-17T12:50:48.715Z,9.63
2022-11-17T12:55:04.852Z,9.63
2022-11-17T12:59:34.271Z,9.63
2022-11-17T13:04:00.700Z,9.64
2022-11-17T13:08:14.610Z,9.62
2022-11-17T13:12:22.194Z,9.62
2022-11-17T13:16:23.913Z,9.61
2022-11-17T13:20:28.266Z,9.61
2022-11-17T13:24:33.201Z,9.61
2022-11-17T13:28:34.914Z,9.62
2022-11-17T13:32:39.754Z,9.64
2022-11-17T13:36:58.683Z,9.65
2022-11-17T13:41:01.971Z,9.67
2022-11-17T13:45:06.227Z,9.67
2022-11-17T13:49:36.480Z,9.69
2022-11-17T13:53:43.078Z,9.72
2022-11-17T13:57:55.463Z,9.74
2022-11-17T14:02:15.235Z,9.75
2022-11-17T14:06:17.049Z,9.74
2022-11-17T14:10:21.850Z,9.77
2022-11-17T14:14:44.175Z,9.80
2022-11-17T14:18:55.770Z,9.81
2022-11-17T14:23:12.658Z,9.84
2022-11-17T14:27:37.312Z,9.85
2022-11-17T14:31:39.159Z,9.86
2022-11-17T14:35:41.783Z,9.91
2022-11-17T14:39:43.531Z,9.93
2022-11-17T14:43:45.593Z,9.97
2022-11-17T14:47:48.566Z,10.00
2022-11-17T14:51:50.560Z,10.02
2022-11-17T14:55:53.392Z,10.05
2022-11-17T14:59:55.118Z,10.08
2022-11-17T15:04:00.122Z,10.10
2022-11-17T15:08:01.990Z,10.12
2022-11-17T15:12:03.900Z,10.14
2022-11-17T15:16:06.272Z,10.16
2022-11-17T15:20:09.391Z,10.17
2022-11-17T15:24:11.075Z,10.18
2022-11-17T15:28:18.923Z,10.18
2022-11-17T15:32:23.106Z,10.19
2022-11-17T15:36:24.989Z,10.20
2022-11-17T15:40:26.778Z,10.19
2022-11-17T15:44:29.353Z,10.20
2022-11-17T15:48:38.843Z,10.19
2022-11-17T15:53:03.105Z,10.19
2022-11-17T15:57:02.976Z,10.19
2022-11-17T16:01:12.329Z,10.18
2022-11-17T16:05:14.161Z,10.20
2022-11-17T16:09:16.584Z,10.20
2022-11-17T16:13:18.531Z,10.19
2022-11-17T16:17:20.348Z,10.20
2022-11-17T16:21:22.173Z,10.20
2022-11-17T16:25:23.851Z,10.20
2022-11-17T16:29:25.754Z,10.22
2022-11-17T16:33:27.464Z,10.22
2022-11-17T16:37:29.188Z,10.22
2022-11-17T16:41:33.237Z,10.22
2022-11-17T16:45:43.821Z,10.23
2022-11-17T16:49:50.519Z,10.24
2022-11-17T16:54:07.449Z,10.25
2022-11-17T16:58:10.248Z,10.26
2022-11-17T17:02:12.906Z,10.25
2022-11-17T17:06:17.144Z,10.25
2022-11-17T17:10:18.813Z,10.23
2022-11-17T17:14:20.569Z,10.23
2022-11-17T17:18:22.287Z,10.21
2022-11-17T17:22:24.012Z,10.21
2022-11-17T17:26:27.997Z,10.20
2022-11-17T17:30:29.642Z,10.18
2022-11-17T17:34:31.304Z,10.18
2022-11-17T17:38:33.154Z,10.17
2022-11-17T17:42:34.811Z,10.16
2022-11-17T17:46:38.781Z,10.15
2022-11-17T17:50:40.442Z,10.12
2022-11-17T17:54:42.115Z,10.11
2022-11-17T17:58:43.946Z,10.09
2022-11-17T18:02:45.673Z,10.08
2022-11-17T18:06:48.422Z,10.06
2022-11-17T18:10:50.527Z,10.05
2022-11-17T18:14:52.269Z,10.03
2022-11-17T18:18:59.696Z,10.02
2022-11-17T18:23:01.728Z,9.99
2022-11-17T18:27:03.544Z,9.96
2022-11-17T18:31:06.379Z,9.95
2022-11-17T18:35:08.556Z,9.94
2022-11-17T18:39:10.554Z,9.93
2022-11-17T18:43:12.379Z,9.92
2022-11-17T18:47:14.121Z,9.88
2022-11-17T18:51:19.576Z,9.85
2022-11-17T18:55:22.641Z,9.82
2022-11-17T18:59:24.469Z,9.80
2022-11-17T19:03:26.480Z,9.77
2022-11-17T19:07:28.349Z,9.74
2022-11-17T19:11:31.639Z,9.74
2022-11-17T19:15:34.671Z,9.71
2022-11-17T19:19:36.369Z,9.69
2022-11-17T19:23:41.757Z,9.67
2022-11-17T19:27:43.633Z,9.64
2022-11-17T19:31:46.401Z,9.63
2022-11-17T19:35:48.035Z,9.62
2022-11-17T19:39:49.762Z,9.61
2022-11-17T19:43:56.772Z,9.58
2022-11-17T19:47:59.036Z,9.57
2022-11-17T19:52:00.819Z,9.53
2022-11-17T19:56:02.502Z,9.51
2022-11-17T20:00:04.780Z,9.49
2022-11-17T20:04:13.852Z,9.47
2022-11-17T20:08:15.615Z,9.44
2022-11-17T20:12:17.391Z,9.43
2022-11-17T20:16:27.046Z,9.40
2022-11-17T20:20:28.698Z,9.38
2022-11-17T20:24:30.510Z,9.36
2022-11-17T20:28:34.029Z,9.34
2022-11-17T20:32:36.937Z,9.31
2022-11-17T20:36:38.635Z,9.29
2022-11-17T20:40:40.454Z,9.26
2022-11-17T20:44:42.114Z,9.22
2022-11-17T20:48:44.494Z,9.19
2022-11-17T20:52:46.167Z,9.18
2022-11-17T20:56:47.858Z,9.16
2022-11-17T21:00:49.649Z,9.13
2022-11-17T21:04:51.436Z,9.11
2022-11-17T21:08:53.325Z,9.08
2022-11-17T21:12:55.058Z,9.07
2022-11-17T21:16:57.785Z,9.03
2022-11-17T21:21:04.733Z,9.00
2022-11-17T21:25:06.720Z,8.97
2022-11-17T21:29:08.561Z,8.96
2022-11-17T21:33:10.224Z,8.95
2022-11-17T21:37:11.895Z,8.90
2022-11-17T21:41:20.909Z,8.87
2022-11-17T21:45:22.603Z,8.86
2022-11-17T21:49:27.103Z,8.85
2022-11-17T21:53:29.934Z,8.83
2022-11-17T21:57:31.653Z,8.82
2022-11-17T22:01:34.753Z,8.81
2022-11-17T22:05:36.617Z,8.81
2022-11-17T22:09:38.252Z,8.79
2022-11-17T22:13:40.945Z,8.77
2022-11-17T22:17:42.763Z,8.73
2022-11-17T22:21:45.520Z,8.70
2022-11-17T22:25:58.210Z,8.67
2022-11-17T22:29:59.962Z,8.65
2022-11-17T22:34:01.716Z,8.61
2022-11-17T22:38:03.495Z,8.58
2022-11-17T22:42:05.239Z,8.55
2022-11-17T22:46:09.868Z,8.53
2022-11-17T22:50:12.316Z,8.48
2022-11-17T22:54:14.029Z,8.45
2022-11-17T22:58:17.052Z,8.42
2022-11-17T23:02:18.738Z,8.38
2022-11-17T23:06:23.039Z,8.34
2022-11-17T23:10:24.881Z,8.30
2022-11-17T23:14:26.652Z,8.27
2022-11-17T23:18:28.408Z,8.24
2022-11-17T23:22:30.153Z,8.23
2022-11-17T23:26:31.858Z,8.21
2022-11-17T23:30:33.782Z,8.18
2022-11-17T23:34:35.516Z,8.15
2022-11-17T23:38:37.184Z,8.11
2022-11-17T23:42:43.075Z,8.09
2022-11-17T23:46:45.263Z,8.06
2022-11-17T23:50:46.986Z,8.01
2022-11-17T23:54:48.729Z,7.97
2022-11-17T23:58:51.748Z,7.96
